sensor_id;sensor_type;location;lat;lon;timestamp;temperature;humidity
7530;DHT22;3806;52.270;10.544;2023-01-23T00:01:29;3.70;99.90
7530;DHT22;3806;52.270;10.544;2023-01-23T00:03:56;3.70;99.90
7530;DHT22;3806;52.270;10.544;2023-01-23T00:06:22;3.70;99.90
7530;DHT22;3806;52.270;10.544;2023-01-23T00:08:48;3.70;99.90
7530;DHT22;3806;52.270;10.544;2023-01-23T00:11:17;3.70;99.90
7530;DHT22;3806;52.270;10.544;2023-01-23T00:13:43;3.70;99.90
7530;DHT22;3806;52.270;10.544;2023-01-23T00:16:14;3.70;99.90
7530;DHT22;3806;52.270;10.544;2023-01-23T00:18:40;3.70;99.90
7530;DHT22;3806;52.270;10.544;2023-01-23T00:21:14;3.70;99.90
7530;DHT22;3806;52.270;10.544;2023-01-23T00:23:42;3.60;99.90
7530;DHT22;3806;52.270;10.544;2023-01-23T00:26:12;3.60;99.90
7530;DHT22;3806;52.270;10.544;2023-01-23T00:28:40;3.60;99.90
7530;DHT22;3806;52.270;10.544;2023-01-23T00:31:09;3.60;99.90
7530;DHT22;3806;52.270;10.544;2023-01-23T00:33:38;3.60;99.90
7530;DHT22;3806;52.270;10.544;2023-01-23T00:36:04;3.60;99.90
7530;DHT22;3806;52.270;10.544;2023-01-23T00:38:29;3.60;99.90
7530;DHT22;3806;52.270;10.544;2023-01-23T00:40:55;3.50;99.90
7530;DHT22;3806;52.270;10.544;2023-01-23T00:43:22;3.50;99.90
7530;DHT22;3806;52.270;10.544;2023-01-23T00:45:48;3.50;99.90
7530;DHT22;3806;52.270;10.544;2023-01-23T00:48:14;3.50;99.90
7530;DHT22;3806;52.270;10.544;2023-01-23T00:50:39;3.50;99.90
7530;DHT22;3806;52.270;10.544;2023-01-23T00:53:05;3.40;99.90
7530;DHT22;3806;52.270;10.544;2023-01-23T00:55:31;3.40;99.90
7530;DHT22;3806;52.270;10.544;2023-01-23T00:57:57;3.40;99.90
7530;DHT22;3806;52.270;10.544;2023-01-23T01:00:22;3.40;99.90
7530;DHT22;3806;52.270;10.544;2023-01-23T01:02:48;3.40;99.90
7530;DHT22;3806;52.270;10.544;2023-01-23T01:05:14;3.40;99.90
7530;DHT22;3806;52.270;10.544;2023-01-23T01:07:43;3.40;99.90
7530;DHT22;3806;52.270;10.544;2023-01-23T01:10:10;3.50;99.90
7530;DHT22;3806;52.270;10.544;2023-01-23T01:12:35;3.40;99.90
7530;DHT22;3806;52.270;10.544;2023-01-23T01:15:01;3.40;99.90
7530;DHT22;3806;52.270;10.544;2023-01-23T01:17:27;3.30;99.90
7530;DHT22;3806;52.270;10.544;2023-01-23T01:19:53;3.40;99.90
7530;DHT22;3806;52.270;10.544;2023-01-23T01:22:18;3.40;99.90
7530;DHT22;3806;52.270;10.544;2023-01-23T01:24:45;3.40;99.90
7530;DHT22;3806;52.270;10.544;2023-01-23T01:27:10;3.40;99.90
7530;DHT22;3806;52.270;10.544;2023-01-23T01:29:36;3.50;99.90
7530;DHT22;3806;52.270;10.544;2023-01-23T01:32:02;3.50;99.90
7530;DHT22;3806;52.270;10.544;2023-01-23T01:34:27;3.50;99.90
7530;DHT22;3806;52.270;10.544;2023-01-23T01:36:53;3.50;99.90
7530;DHT22;3806;52.270;10.544;2023-01-23T01:39:19;3.50;99.90
7530;DHT22;3806;52.270;10.544;2023-01-23T01:41:44;3.60;99.90
7530;DHT22;3806;52.270;10.544;2023-01-23T01:44:21;3.50;99.90
7530;DHT22;3806;52.270;10.544;2023-01-23T01:46:47;3.50;99.90
7530;DHT22;3806;52.270;10.544;2023-01-23T01:49:22;3.50;99.90
7530;DHT22;3806;52.270;10.544;2023-01-23T01:54:40;3.60;99.90
7530;DHT22;3806;52.270;10.544;2023-01-23T01:59:57;3.60;99.90
7530;DHT22;3806;52.270;10.544;2023-01-23T02:05:33;3.50;99.90
7530;DHT22;3806;52.270;10.544;2023-01-23T02:10:50;3.50;99.90
7530;DHT22;3806;52.270;10.544;2023-01-23T02:15:48;3.50;99.90
7530;DHT22;3806;52.270;10.544;2023-01-23T02:18:14;3.50;99.90
7530;DHT22;3806;52.270;10.544;2023-01-23T02:20:40;3.50;99.90
7530;DHT22;3806;52.270;10.544;2023-01-23T02:28:14;3.50;99.90
7530;DHT22;3806;52.270;10.544;2023-01-23T02:30:42;3.60;99.90
7530;DHT22;3806;52.270;10.544;2023-01-23T02:36:02;3.60;99.90
7530;DHT22;3806;52.270;10.544;2023-01-23T02:38:44;3.60;99.90
7530;DHT22;3806;52.270;10.544;2023-01-23T02:41:14;3.60;99.90
7530;DHT22;3806;52.270;10.544;2023-01-23T02:43:40;3.60;99.90
7530;DHT22;3806;52.270;10.544;2023-01-23T02:46:09;3.70;99.90
7530;DHT22;3806;52.270;10.544;2023-01-23T02:48:38;3.60;99.90
7530;DHT22;3806;52.270;10.544;2023-01-23T02:51:05;3.60;99.90
7530;DHT22;3806;52.270;10.544;2023-01-23T02:53:31;3.60;99.90
7530;DHT22;3806;52.270;10.544;2023-01-23T02:55:57;3.60;99.90
7530;DHT22;3806;52.270;10.544;2023-01-23T02:58:25;3.60;99.90
7530;DHT22;3806;52.270;10.544;2023-01-23T03:01:10;3.60;99.90
7530;DHT22;3806;52.270;10.544;2023-01-23T03:03:36;3.60;99.90
7530;DHT22;3806;52.270;10.544;2023-01-23T03:06:02;3.60;99.90
7530;DHT22;3806;52.270;10.544;2023-01-23T03:08:28;3.60;99.90
7530;DHT22;3806;52.270;10.544;2023-01-23T03:11:02;3.60;99.90
7530;DHT22;3806;52.270;10.544;2023-01-23T03:13:29;3.60;99.90
7530;DHT22;3806;52.270;10.544;2023-01-23T03:15:55;3.60;99.90
7530;DHT22;3806;52.270;10.544;2023-01-23T03:18:24;3.60;99.90
7530;DHT22;3806;52.270;10.544;2023-01-23T03:20:52;3.60;99.90
7530;DHT22;3806;52.270;10.544;2023-01-23T03:23:17;3.60;99.90
7530;DHT22;3806;52.270;10.544;2023-01-23T03:25:43;3.60;99.90
7530;DHT22;3806;52.270;10.544;2023-01-23T03:28:09;3.50;99.90
7530;DHT22;3806;52.270;10.544;2023-01-23T03:30:57;3.50;99.90
7530;DHT22;3806;52.270;10.544;2023-01-23T03:33:23;3.60;99.90
7530;DHT22;3806;52.270;10.544;2023-01-23T03:35:49;3.60;99.90
7530;DHT22;3806;52.270;10.544;2023-01-23T03:38:15;3.60;99.90
7530;DHT22;3806;52.270;10.544;2023-01-23T03:40:43;3.60;99.90
7530;DHT22;3806;52.270;10.544;2023-01-23T03:43:31;3.60;99.90
7530;DHT22;3806;52.270;10.544;2023-01-23T03:45:57;3.60;99.90
7530;DHT22;3806;52.270;10.544;2023-01-23T03:48:23;3.60;99.90
7530;DHT22;3806;52.270;10.544;2023-01-23T03:50:48;3.70;99.90
7530;DHT22;3806;52.270;10.544;2023-01-23T03:53:14;3.70;99.90
7530;DHT22;3806;52.270;10.544;2023-01-23T03:55:40;3.60;99.90
7530;DHT22;3806;52.270;10.544;2023-01-23T03:58:05;3.60;99.90
7530;DHT22;3806;52.270;10.544;2023-01-23T04:00:31;3.60;99.90
7530;DHT22;3806;52.270;10.544;2023-01-23T04:02:56;3.60;99.90
7530;DHT22;3806;52.270;10.544;2023-01-23T04:05:22;3.60;99.90
7530;DHT22;3806;52.270;10.544;2023-01-23T04:07:48;3.60;99.90
7530;DHT22;3806;52.270;10.544;2023-01-23T04:10:14;3.50;99.90
7530;DHT22;3806;52.270;10.544;2023-01-23T04:12:43;3.50;99.90
7530;DHT22;3806;52.270;10.544;2023-01-23T04:15:09;3.50;99.90
7530;DHT22;3806;52.270;10.544;2023-01-23T04:17:35;3.50;99.90
7530;DHT22;3806;52.270;10.544;2023-01-23T04:20:01;3.50;99.90
7530;DHT22;3806;52.270;10.544;2023-01-23T04:22:26;3.60;99.90
7530;DHT22;3806;52.270;10.544;2023-01-23T04:24:52;3.50;99.90
7530;DHT22;3806;52.270;10.544;2023-01-23T04:27:18;3.50;99.90
7530;DHT22;3806;52.270;10.544;2023-01-23T04:29:43;3.40;99.90
7530;DHT22;3806;52.270;10.544;2023-01-23T04:32:09;3.40;99.90
7530;DHT22;3806;52.270;10.544;2023-01-23T04:34:34;3.40;99.90
7530;DHT22;3806;52.270;10.544;2023-01-23T04:37:00;3.40;99.90
7530;DHT22;3806;52.270;10.544;2023-01-23T04:39:26;3.40;99.90
7530;DHT22;3806;52.270;10.544;2023-01-23T04:41:51;3.40;99.90
7530;DHT22;3806;52.270;10.544;2023-01-23T04:44:17;3.40;99.90
7530;DHT22;3806;52.270;10.544;2023-01-23T04:46:46;3.40;99.90
7530;DHT22;3806;52.270;10.544;2023-01-23T04:49:14;3.40;99.90
7530;DHT22;3806;52.270;10.544;2023-01-23T04:51:40;3.40;99.90
7530;DHT22;3806;52.270;10.544;2023-01-23T04:54:05;3.40;99.90
7530;DHT22;3806;52.270;10.544;2023-01-23T04:56:31;3.40;99.90
7530;DHT22;3806;52.270;10.544;2023-01-23T04:58:56;3.40;99.90
7530;DHT22;3806;52.270;10.544;2023-01-23T05:01:22;3.50;99.90
7530;DHT22;3806;52.270;10.544;2023-01-23T05:03:49;3.50;99.90
7530;DHT22;3806;52.270;10.544;2023-01-23T05:06:16;3.50;99.90
7530;DHT22;3806;52.270;10.544;2023-01-23T05:08:41;3.50;99.90
7530;DHT22;3806;52.270;10.544;2023-01-23T05:11:07;3.50;99.90
7530;DHT22;3806;52.270;10.544;2023-01-23T05:13:32;3.50;99.90
7530;DHT22;3806;52.270;10.544;2023-01-23T05:15:58;3.50;99.90
7530;DHT22;3806;52.270;10.544;2023-01-23T05:18:24;3.50;99.90
7530;DHT22;3806;52.270;10.544;2023-01-23T05:20:50;3.40;99.90
7530;DHT22;3806;52.270;10.544;2023-01-23T05:23:15;3.40;99.90
7530;DHT22;3806;52.270;10.544;2023-01-23T05:25:41;3.50;99.90
7530;DHT22;3806;52.270;10.544;2023-01-23T05:28:07;3.50;99.90
7530;DHT22;3806;52.270;10.544;2023-01-23T05:30:32;3.50;99.90
7530;DHT22;3806;52.270;10.544;2023-01-23T05:32:58;3.50;99.90
7530;DHT22;3806;52.270;10.544;2023-01-23T05:35:23;3.40;99.90
7530;DHT22;3806;52.270;10.544;2023-01-23T05:37:52;3.40;99.90
7530;DHT22;3806;52.270;10.544;2023-01-23T05:40:19;3.40;99.90
7530;DHT22;3806;52.270;10.544;2023-01-23T05:42:46;3.40;99.90
7530;DHT22;3806;52.270;10.544;2023-01-23T05:45:12;3.40;99.90
7530;DHT22;3806;52.270;10.544;2023-01-23T05:47:37;3.30;99.90
7530;DHT22;3806;52.270;10.544;2023-01-23T05:50:04;3.30;99.90
7530;DHT22;3806;52.270;10.544;2023-01-23T05:52:30;3.30;99.90
7530;DHT22;3806;52.270;10.544;2023-01-23T05:54:56;3.30;99.90
7530;DHT22;3806;52.270;10.544;2023-01-23T05:57:21;3.30;99.90
7530;DHT22;3806;52.270;10.544;2023-01-23T05:59:47;3.40;99.90
7530;DHT22;3806;52.270;10.544;2023-01-23T06:02:13;3.40;99.90
7530;DHT22;3806;52.270;10.544;2023-01-23T06:04:38;3.40;99.90
7530;DHT22;3806;52.270;10.544;2023-01-23T06:07:04;3.40;99.90
7530;DHT22;3806;52.270;10.544;2023-01-23T06:09:31;3.40;99.90
7530;DHT22;3806;52.270;10.544;2023-01-23T06:11:57;3.40;99.90
7530;DHT22;3806;52.270;10.544;2023-01-23T06:14:23;3.40;99.90
7530;DHT22;3806;52.270;10.544;2023-01-23T06:16:48;3.40;99.90
7530;DHT22;3806;52.270;10.544;2023-01-23T06:19:14;3.50;99.90
7530;DHT22;3806;52.270;10.544;2023-01-23T06:21:39;3.50;99.90
7530;DHT22;3806;52.270;10.544;2023-01-23T06:24:07;3.50;99.90
7530;DHT22;3806;52.270;10.544;2023-01-23T06:26:33;3.50;99.90
7530;DHT22;3806;52.270;10.544;2023-01-23T06:28:59;3.50;99.90
7530;DHT22;3806;52.270;10.544;2023-01-23T06:31:25;3.60;99.90
7530;DHT22;3806;52.270;10.544;2023-01-23T06:33:52;3.50;99.90
7530;DHT22;3806;52.270;10.544;2023-01-23T06:36:18;3.50;99.90
7530;DHT22;3806;52.270;10.544;2023-01-23T06:38:43;3.50;99.90
7530;DHT22;3806;52.270;10.544;2023-01-23T06:41:09;3.50;99.90
7530;DHT22;3806;52.270;10.544;2023-01-23T06:43:35;3.50;99.90
7530;DHT22;3806;52.270;10.544;2023-01-23T06:46:00;3.50;99.90
7530;DHT22;3806;52.270;10.544;2023-01-23T06:48:26;3.50;99.90
7530;DHT22;3806;52.270;10.544;2023-01-23T06:50:52;3.50;99.90
7530;DHT22;3806;52.270;10.544;2023-01-23T06:53:18;3.40;99.90
7530;DHT22;3806;52.270;10.544;2023-01-23T06:55:44;3.50;99.90
7530;DHT22;3806;52.270;10.544;2023-01-23T06:58:10;3.50;99.90
7530;DHT22;3806;52.270;10.544;2023-01-23T07:00:36;3.50;99.90
7530;DHT22;3806;52.270;10.544;2023-01-23T07:03:01;3.50;99.90
7530;DHT22;3806;52.270;10.544;2023-01-23T07:05:29;3.50;99.90
7530;DHT22;3806;52.270;10.544;2023-01-23T07:07:54;3.50;99.90
7530;DHT22;3806;52.270;10.544;2023-01-23T07:10:20;3.50;99.90
7530;DHT22;3806;52.270;10.544;2023-01-23T07:12:47;3.50;99.90
7530;DHT22;3806;52.270;10.544;2023-01-23T07:15:13;3.50;99.90
7530;DHT22;3806;52.270;10.544;2023-01-23T07:17:39;3.50;99.90
7530;DHT22;3806;52.270;10.544;2023-01-23T07:20:05;3.50;99.90
7530;DHT22;3806;52.270;10.544;2023-01-23T07:22:31;3.50;99.90
7530;DHT22;3806;52.270;10.544;2023-01-23T07:24:56;3.50;99.90
7530;DHT22;3806;52.270;10.544;2023-01-23T07:27:22;3.50;99.90
7530;DHT22;3806;52.270;10.544;2023-01-23T07:29:47;3.50;99.90
7530;DHT22;3806;52.270;10.544;2023-01-23T07:32:13;3.50;99.90
7530;DHT22;3806;52.270;10.544;2023-01-23T07:34:39;3.50;99.90
7530;DHT22;3806;52.270;10.544;2023-01-23T07:37:05;3.50;99.90
7530;DHT22;3806;52.270;10.544;2023-01-23T07:39:31;3.60;99.90
7530;DHT22;3806;52.270;10.544;2023-01-23T07:41:56;3.60;99.90
7530;DHT22;3806;52.270;10.544;2023-01-23T07:44:22;3.60;99.90
7530;DHT22;3806;52.270;10.544;2023-01-23T07:46:48;3.60;99.90
7530;DHT22;3806;52.270;10.544;2023-01-23T07:49:14;3.50;99.90
7530;DHT22;3806;52.270;10.544;2023-01-23T07:51:40;3.60;99.90
7530;DHT22;3806;52.270;10.544;2023-01-23T07:54:06;3.60;99.90
7530;DHT22;3806;52.270;10.544;2023-01-23T07:56:32;3.70;99.90
7530;DHT22;3806;52.270;10.544;2023-01-23T07:58:58;3.70;99.90
7530;DHT22;3806;52.270;10.544;2023-01-23T08:01:23;3.70;99.90
7530;DHT22;3806;52.270;10.544;2023-01-23T08:03:49;3.70;99.90
7530;DHT22;3806;52.270;10.544;2023-01-23T08:06:15;3.70;99.90
7530;DHT22;3806;52.270;10.544;2023-01-23T08:08:41;3.70;99.90
7530;DHT22;3806;52.270;10.544;2023-01-23T08:11:07;3.70;99.90
7530;DHT22;3806;52.270;10.544;2023-01-23T08:13:36;3.70;99.90
7530;DHT22;3806;52.270;10.544;2023-01-23T08:16:01;3.80;99.90
7530;DHT22;3806;52.270;10.544;2023-01-23T08:18:28;3.70;99.90
7530;DHT22;3806;52.270;10.544;2023-01-23T08:20:55;3.80;99.90
7530;DHT22;3806;52.270;10.544;2023-01-23T08:23:31;3.80;99.90
7530;DHT22;3806;52.270;10.544;2023-01-23T08:26:00;3.80;99.90
7530;DHT22;3806;52.270;10.544;2023-01-23T08:28:26;3.70;99.90
7530;DHT22;3806;52.270;10.544;2023-01-23T08:30:52;3.80;99.90
7530;DHT22;3806;52.270;10.544;2023-01-23T08:33:19;3.80;99.90
7530;DHT22;3806;52.270;10.544;2023-01-23T08:35:53;3.80;99.90
7530;DHT22;3806;52.270;10.544;2023-01-23T08:38:20;3.80;99.90
7530;DHT22;3806;52.270;10.544;2023-01-23T08:40:47;3.80;99.90
7530;DHT22;3806;52.270;10.544;2023-01-23T08:43:13;3.80;99.90
7530;DHT22;3806;52.270;10.544;2023-01-23T08:45:40;3.80;99.90
7530;DHT22;3806;52.270;10.544;2023-01-23T08:48:06;3.80;99.90
7530;DHT22;3806;52.270;10.544;2023-01-23T08:50:32;3.80;99.90
7530;DHT22;3806;52.270;10.544;2023-01-23T08:52:58;3.80;99.90
7530;DHT22;3806;52.270;10.544;2023-01-23T08:55:23;3.80;99.90
7530;DHT22;3806;52.270;10.544;2023-01-23T08:57:49;3.70;99.90
7530;DHT22;3806;52.270;10.544;2023-01-23T09:00:15;3.80;99.90
7530;DHT22;3806;52.270;10.544;2023-01-23T09:02:40;3.80;99.90
7530;DHT22;3806;52.270;10.544;2023-01-23T09:05:06;3.80;99.90
7530;DHT22;3806;52.270;10.544;2023-01-23T09:07:32;3.80;99.90
7530;DHT22;3806;52.270;10.544;2023-01-23T09:10:01;3.90;99.90
7530;DHT22;3806;52.270;10.544;2023-01-23T09:12:26;3.90;99.90
7530;DHT22;3806;52.270;10.544;2023-01-23T09:14:52;3.90;99.90
7530;DHT22;3806;52.270;10.544;2023-01-23T09:17:18;3.90;99.90
7530;DHT22;3806;52.270;10.544;2023-01-23T09:19:43;4.00;99.90
7530;DHT22;3806;52.270;10.544;2023-01-23T09:22:09;4.00;99.90
7530;DHT22;3806;52.270;10.544;2023-01-23T09:24:34;4.00;99.90
7530;DHT22;3806;52.270;10.544;2023-01-23T09:27:00;4.00;99.90
7530;DHT22;3806;52.270;10.544;2023-01-23T09:29:25;4.00;99.90
7530;DHT22;3806;52.270;10.544;2023-01-23T09:31:51;4.00;99.90
7530;DHT22;3806;52.270;10.544;2023-01-23T09:34:17;4.00;99.90
7530;DHT22;3806;52.270;10.544;2023-01-23T09:36:43;3.90;99.90
7530;DHT22;3806;52.270;10.544;2023-01-23T09:39:08;3.90;99.90
7530;DHT22;3806;52.270;10.544;2023-01-23T09:41:34;4.00;99.90
7530;DHT22;3806;52.270;10.544;2023-01-23T09:44:04;4.10;99.90
7530;DHT22;3806;52.270;10.544;2023-01-23T09:46:54;4.00;99.90
7530;DHT22;3806;52.270;10.544;2023-01-23T09:54:49;4.00;99.90
7530;DHT22;3806;52.270;10.544;2023-01-23T09:57:28;4.00;99.90
7530;DHT22;3806;52.270;10.544;2023-01-23T10:00:04;4.00;99.90
7530;DHT22;3806;52.270;10.544;2023-01-23T10:02:31;4.00;99.90
7530;DHT22;3806;52.270;10.544;2023-01-23T10:04:58;4.00;99.90
7530;DHT22;3806;52.270;10.544;2023-01-23T10:13:07;4.00;99.90
7530;DHT22;3806;52.270;10.544;2023-01-23T10:15:46;4.10;99.90
7530;DHT22;3806;52.270;10.544;2023-01-23T10:20:50;4.10;99.90
7530;DHT22;3806;52.270;10.544;2023-01-23T10:26:17;4.10;99.90
7530;DHT22;3806;52.270;10.544;2023-01-23T10:28:45;4.10;99.90
7530;DHT22;3806;52.270;10.544;2023-01-23T10:31:29;4.10;99.90
7530;DHT22;3806;52.270;10.544;2023-01-23T10:36:34;4.20;99.90
7530;DHT22;3806;52.270;10.544;2023-01-23T10:39:21;4.30;99.90
7530;DHT22;3806;52.270;10.544;2023-01-23T10:41:49;4.20;99.90
7530;DHT22;3806;52.270;10.544;2023-01-23T10:44:17;4.30;99.90
7530;DHT22;3806;52.270;10.544;2023-01-23T10:46:49;4.30;99.90
7530;DHT22;3806;52.270;10.544;2023-01-23T10:49:34;4.20;99.90
7530;DHT22;3806;52.270;10.544;2023-01-23T10:52:00;4.20;99.90
7530;DHT22;3806;52.270;10.544;2023-01-23T10:54:27;4.30;99.90
7530;DHT22;3806;52.270;10.544;2023-01-23T10:59:38;4.30;99.90
7530;DHT22;3806;52.270;10.544;2023-01-23T11:04:41;4.20;99.90
7530;DHT22;3806;52.270;10.544;2023-01-23T11:07:26;4.30;99.90
7530;DHT22;3806;52.270;10.544;2023-01-23T11:10:00;4.20;99.90
7530;DHT22;3806;52.270;10.544;2023-01-23T11:12:31;4.20;99.90
7530;DHT22;3806;52.270;10.544;2023-01-23T11:15:34;4.20;99.90
7530;DHT22;3806;52.270;10.544;2023-01-23T11:18:29;4.30;99.90
7530;DHT22;3806;52.270;10.544;2023-01-23T11:20:55;4.30;99.90
7530;DHT22;3806;52.270;10.544;2023-01-23T11:23:20;4.30;99.90
7530;DHT22;3806;52.270;10.544;2023-01-23T11:25:48;4.30;99.90
7530;DHT22;3806;52.270;10.544;2023-01-23T11:30:51;4.40;99.90
7530;DHT22;3806;52.270;10.544;2023-01-23T11:38:26;4.40;99.90
7530;DHT22;3806;52.270;10.544;2023-01-23T11:40:52;4.40;99.90
7530;DHT22;3806;52.270;10.544;2023-01-23T11:43:18;4.40;99.90
7530;DHT22;3806;52.270;10.544;2023-01-23T11:48:34;4.40;99.90
7530;DHT22;3806;52.270;10.544;2023-01-23T11:51:19;4.40;99.90
7530;DHT22;3806;52.270;10.544;2023-01-23T11:54:09;4.40;99.90
7530;DHT22;3806;52.270;10.544;2023-01-23T12:05:40;4.40;99.90
7530;DHT22;3806;52.270;10.544;2023-01-23T12:11:13;4.50;99.90
7530;DHT22;3806;52.270;10.544;2023-01-23T12:16:40;4.50;99.90
7530;DHT22;3806;52.270;10.544;2023-01-23T12:25:00;4.70;99.90
7530;DHT22;3806;52.270;10.544;2023-01-23T12:35:39;4.80;99.90
7530;DHT22;3806;52.270;10.544;2023-01-23T12:46:23;4.70;99.90
7530;DHT22;3806;52.270;10.544;2023-01-23T12:48:57;4.60;99.90
7530;DHT22;3806;52.270;10.544;2023-01-23T12:51:38;4.60;99.90
7530;DHT22;3806;52.270;10.544;2023-01-23T12:54:13;4.50;99.90
7530;DHT22;3806;52.270;10.544;2023-01-23T12:56:41;4.50;99.90
7530;DHT22;3806;52.270;10.544;2023-01-23T12:59:16;4.50;99.90
7530;DHT22;3806;52.270;10.544;2023-01-23T13:02:11;4.50;99.90
7530;DHT22;3806;52.270;10.544;2023-01-23T13:04:56;4.50;99.90
7530;DHT22;3806;52.270;10.544;2023-01-23T13:10:40;4.50;99.90
7530;DHT22;3806;52.270;10.544;2023-01-23T13:13:27;4.60;99.90
7530;DHT22;3806;52.270;10.544;2023-01-23T13:16:11;4.50;99.90
7530;DHT22;3806;52.270;10.544;2023-01-23T13:18:38;4.50;99.90
7530;DHT22;3806;52.270;10.544;2023-01-23T13:21:22;4.50;99.90
7530;DHT22;3806;52.270;10.544;2023-01-23T13:27:43;4.50;99.90
7530;DHT22;3806;52.270;10.544;2023-01-23T13:46:40;4.50;99.90
7530;DHT22;3806;52.270;10.544;2023-01-23T13:52:21;4.40;99.90
7530;DHT22;3806;52.270;10.544;2023-01-23T13:55:25;4.40;99.90
7530;DHT22;3806;52.270;10.544;2023-01-23T13:58:14;4.40;99.90
7530;DHT22;3806;52.270;10.544;2023-01-23T14:00:44;4.40;99.90
7530;DHT22;3806;52.270;10.544;2023-01-23T14:03:34;4.40;99.90
7530;DHT22;3806;52.270;10.544;2023-01-23T14:06:34;4.40;99.90
7530;DHT22;3806;52.270;10.544;2023-01-23T14:09:00;4.40;99.90
7530;DHT22;3806;52.270;10.544;2023-01-23T14:11:37;4.40;99.90
7530;DHT22;3806;52.270;10.544;2023-01-23T14:14:04;4.40;99.90
7530;DHT22;3806;52.270;10.544;2023-01-23T14:16:49;4.40;99.90
7530;DHT22;3806;52.270;10.544;2023-01-23T14:19:28;4.40;99.90
7530;DHT22;3806;52.270;10.544;2023-01-23T14:21:57;4.40;99.90
7530;DHT22;3806;52.270;10.544;2023-01-23T14:24:46;4.40;99.90
7530;DHT22;3806;52.270;10.544;2023-01-23T14:27:32;4.40;99.90
7530;DHT22;3806;52.270;10.544;2023-01-23T14:30:00;4.40;99.90
7530;DHT22;3806;52.270;10.544;2023-01-23T14:32:29;4.40;99.90
7530;DHT22;3806;52.270;10.544;2023-01-23T14:34:55;4.40;99.90
7530;DHT22;3806;52.270;10.544;2023-01-23T14:37:21;4.40;99.90
7530;DHT22;3806;52.270;10.544;2023-01-23T14:39:47;4.40;99.90
7530;DHT22;3806;52.270;10.544;2023-01-23T14:42:30;4.40;99.90
7530;DHT22;3806;52.270;10.544;2023-01-23T14:44:58;4.40;99.90
7530;DHT22;3806;52.270;10.544;2023-01-23T14:47:37;4.40;99.90
7530;DHT22;3806;52.270;10.544;2023-01-23T14:50:08;4.40;99.90
7530;DHT22;3806;52.270;10.544;2023-01-23T14:52:34;4.30;99.90
7530;DHT22;3806;52.270;10.544;2023-01-23T14:55:00;4.30;99.90
7530;DHT22;3806;52.270;10.544;2023-01-23T14:57:27;4.30;99.90
7530;DHT22;3806;52.270;10.544;2023-01-23T14:59:57;4.20;99.90
7530;DHT22;3806;52.270;10.544;2023-01-23T15:08:02;4.20;99.90
7530;DHT22;3806;52.270;10.544;2023-01-23T15:10:50;4.20;99.90
7530;DHT22;3806;52.270;10.544;2023-01-23T15:13:44;4.20;99.90
7530;DHT22;3806;52.270;10.544;2023-01-23T15:19:00;4.20;99.90
7530;DHT22;3806;52.270;10.544;2023-01-23T15:21:29;4.10;99.90
7530;DHT22;3806;52.270;10.544;2023-01-23T15:26:35;4.10;99.90
7530;DHT22;3806;52.270;10.544;2023-01-23T15:34:21;4.20;99.90
7530;DHT22;3806;52.270;10.544;2023-01-23T15:44:36;4.10;99.90
7530;DHT22;3806;52.270;10.544;2023-01-23T15:47:03;4.20;99.90
7530;DHT22;3806;52.270;10.544;2023-01-23T15:49:34;4.20;99.90
7530;DHT22;3806;52.270;10.544;2023-01-23T15:54:43;4.20;99.90
7530;DHT22;3806;52.270;10.544;2023-01-23T15:57:12;4.20;99.90
7530;DHT22;3806;52.270;10.544;2023-01-23T15:59:38;4.20;99.90
7530;DHT22;3806;52.270;10.544;2023-01-23T16:02:05;4.20;99.90
7530;DHT22;3806;52.270;10.544;2023-01-23T16:04:32;4.10;99.90
7530;DHT22;3806;52.270;10.544;2023-01-23T16:07:05;4.10;99.90
7530;DHT22;3806;52.270;10.544;2023-01-23T16:09:33;4.10;99.90
7530;DHT22;3806;52.270;10.544;2023-01-23T16:12:00;4.20;99.90
7530;DHT22;3806;52.270;10.544;2023-01-23T16:14:27;4.20;99.90
7530;DHT22;3806;52.270;10.544;2023-01-23T16:16:53;4.10;99.90
7530;DHT22;3806;52.270;10.544;2023-01-23T16:19:19;4.10;99.90
7530;DHT22;3806;52.270;10.544;2023-01-23T16:21:45;4.10;99.90
7530;DHT22;3806;52.270;10.544;2023-01-23T16:24:17;4.10;99.90
7530;DHT22;3806;52.270;10.544;2023-01-23T16:26:43;4.10;99.90
7530;DHT22;3806;52.270;10.544;2023-01-23T16:29:34;4.00;99.90
7530;DHT22;3806;52.270;10.544;2023-01-23T16:32:01;4.00;99.90
7530;DHT22;3806;52.270;10.544;2023-01-23T16:34:27;4.10;99.90
7530;DHT22;3806;52.270;10.544;2023-01-23T16:36:55;4.10;99.90
7530;DHT22;3806;52.270;10.544;2023-01-23T16:39:24;4.10;99.90
7530;DHT22;3806;52.270;10.544;2023-01-23T16:41:51;4.10;99.90
7530;DHT22;3806;52.270;10.544;2023-01-23T16:44:20;4.10;99.90
7530;DHT22;3806;52.270;10.544;2023-01-23T16:46:49;4.10;99.90
7530;DHT22;3806;52.270;10.544;2023-01-23T16:49:15;4.00;99.90
7530;DHT22;3806;52.270;10.544;2023-01-23T16:51:42;4.00;99.90
7530;DHT22;3806;52.270;10.544;2023-01-23T16:54:18;4.00;99.90
7530;DHT22;3806;52.270;10.544;2023-01-23T16:56:45;4.00;99.90
7530;DHT22;3806;52.270;10.544;2023-01-23T17:01:56;4.10;99.90
7530;DHT22;3806;52.270;10.544;2023-01-23T17:04:22;4.00;99.90
7530;DHT22;3806;52.270;10.544;2023-01-23T17:06:48;4.10;99.90
7530;DHT22;3806;52.270;10.544;2023-01-23T17:09:14;4.00;99.90
7530;DHT22;3806;52.270;10.544;2023-01-23T17:11:44;4.10;99.90
7530;DHT22;3806;52.270;10.544;2023-01-23T17:14:14;4.10;99.90
7530;DHT22;3806;52.270;10.544;2023-01-23T17:16:42;4.10;99.90
7530;DHT22;3806;52.270;10.544;2023-01-23T17:19:26;4.10;99.90
7530;DHT22;3806;52.270;10.544;2023-01-23T17:21:53;4.00;99.90
7530;DHT22;3806;52.270;10.544;2023-01-23T17:24:19;4.00;99.90
7530;DHT22;3806;52.270;10.544;2023-01-23T17:26:44;4.00;99.90
7530;DHT22;3806;52.270;10.544;2023-01-23T17:29:10;4.00;99.90
7530;DHT22;3806;52.270;10.544;2023-01-23T17:31:37;4.00;99.90
7530;DHT22;3806;52.270;10.544;2023-01-23T17:34:03;4.00;99.90
7530;DHT22;3806;52.270;10.544;2023-01-23T17:36:29;3.90;99.90
7530;DHT22;3806;52.270;10.544;2023-01-23T17:38:57;3.90;99.90
7530;DHT22;3806;52.270;10.544;2023-01-23T17:41:23;3.80;99.90
7530;DHT22;3806;52.270;10.544;2023-01-23T17:43:48;3.80;99.90
7530;DHT22;3806;52.270;10.544;2023-01-23T17:46:27;3.80;99.90
7530;DHT22;3806;52.270;10.544;2023-01-23T17:48:54;3.80;99.90
7530;DHT22;3806;52.270;10.544;2023-01-23T17:51:21;3.70;99.90
7530;DHT22;3806;52.270;10.544;2023-01-23T17:53:48;3.70;99.90
7530;DHT22;3806;52.270;10.544;2023-01-23T17:56:14;3.70;99.90
7530;DHT22;3806;52.270;10.544;2023-01-23T17:58:39;3.70;99.90
7530;DHT22;3806;52.270;10.544;2023-01-23T18:01:16;3.70;99.90
7530;DHT22;3806;52.270;10.544;2023-01-23T18:03:41;3.70;99.90
7530;DHT22;3806;52.270;10.544;2023-01-23T18:06:07;3.80;99.90
7530;DHT22;3806;52.270;10.544;2023-01-23T18:08:33;3.70;99.90
7530;DHT22;3806;52.270;10.544;2023-01-23T18:11:05;3.70;99.90
7530;DHT22;3806;52.270;10.544;2023-01-23T18:13:45;3.70;99.90
7530;DHT22;3806;52.270;10.544;2023-01-23T18:16:22;3.70;99.90
7530;DHT22;3806;52.270;10.544;2023-01-23T18:21:40;3.70;99.90
7530;DHT22;3806;52.270;10.544;2023-01-23T18:24:33;3.70;99.90
7530;DHT22;3806;52.270;10.544;2023-01-23T18:27:08;3.70;99.90
7530;DHT22;3806;52.270;10.544;2023-01-23T18:30:00;3.70;99.90
7530;DHT22;3806;52.270;10.544;2023-01-23T18:32:53;3.80;99.90
7530;DHT22;3806;52.270;10.544;2023-01-23T18:35:25;3.80;99.90
7530;DHT22;3806;52.270;10.544;2023-01-23T18:38:10;3.80;99.90
7530;DHT22;3806;52.270;10.544;2023-01-23T18:43:33;3.80;99.90
7530;DHT22;3806;52.270;10.544;2023-01-23T18:46:00;3.80;99.90
7530;DHT22;3806;52.270;10.544;2023-01-23T18:48:26;3.80;99.90
7530;DHT22;3806;52.270;10.544;2023-01-23T18:51:03;3.80;99.90